This is the latest recevied weather packets stored in our database for station/object SQ5DN-4. If no packets are shown the sender has not sent any weather packets the latest 10 day(s).
| Time | Temp. | Humidity | Pressure | Rain* | Wind** | Luminosity | Snow |
|---|---|---|---|---|---|---|---|
| 1777199237 | 8.89° C | 40% | 1014 hPa | - | - | - | - |
| 1777198697 | 10° C | 43% | 1014 hPa | - | - | - | - |
| 1777198202 | 8.89° C | 46% | 1014 hPa | - | - | - | - |
| 1777197653 | 8.89° C | 46% | 1014 hPa | - | - | - | - |
| 1777197107 | 7.78° C | 51% | 1014 hPa | - | - | - | - |
| 1777196557 | 6.11° C | 56% | 1013 hPa | - | - | - | - |
| 1777196047 | 6.11° C | 56% | 1013 hPa | - | - | - | - |
| 1777195547 | 9.44° C | 51% | 1013 hPa | - | - | - | - |
| 1777194977 | 7.78° C | 59% | 1013 hPa | - | - | - | - |
| 1777194397 | 4.44° C | 68% | 1013 hPa | - | - | - | - |
| 1777193871 | 5.56° C | 62% | 1013 hPa | - | - | - | - |
| 1777193277 | 5.56° C | 62% | 1013 hPa | - | - | - | - |
| 1777192687 | 8.33° C | 49% | 1013 hPa | - | - | - | - |
| 1777192162 | 7.78° C | 53% | 1013 hPa | - | - | - | - |
| 1777191667 | 7.22° C | 50% | 1013 hPa | - | - | - | - |
| 1777191182 | 7.22° C | 51% | 1013 hPa | - | - | - | - |
| 1777190627 | 7.22° C | 51% | 1013 hPa | - | - | - | - |
| 1777190142 | 8.33° C | 49% | 1012 hPa | - | - | - | - |
| 1777189642 | 8.33° C | 51% | 1012 hPa | - | - | - | - |
| 1777189157 | 7.78° C | 51% | 1012 hPa | - | - | - | - |
| 1777188567 | 7.78° C | 52% | 1012 hPa | - | - | - | - |
| 1777187987 | 7.78° C | 54% | 1012 hPa | - | - | - | - |
| 1777187437 | 6.67° C | 58% | 1012 hPa | - | - | - | - |
| 1777186902 | 7.22° C | 58% | 1012 hPa | - | - | - | - |
| 1777186317 | 7.78° C | 57% | 1011 hPa | - | - | - | - |
* Rain since midnight (hover to see other rain measurements)
** Current wind speed in m/s (hover to see current wind gust speed)